createdAt,value
2019-03-21T00:00:35.330Z,71.50
2019-03-21T00:05:39.190Z,75.46
2019-03-21T00:11:43.644Z,75.63
2019-03-21T00:16:47.673Z,76.44
2019-03-21T00:21:51.536Z,74.68
2019-03-21T00:26:55.483Z,72.68
2019-03-21T00:31:59.311Z,70.65
2019-03-21T00:37:03.446Z,70.69
2019-03-21T00:42:07.410Z,71.82
2019-03-21T00:47:11.852Z,73.46
2019-03-21T00:52:16.291Z,73.82
2019-03-21T00:57:20.319Z,74.01
2019-03-21T01:02:24.178Z,72.98
2019-03-21T01:07:28.167Z,72.98
2019-03-21T01:12:32.104Z,75.51
2019-03-21T01:17:36.017Z,75.60
2019-03-21T01:22:39.925Z,76.60
2019-03-21T01:27:44.090Z,75.27
2019-03-21T01:32:48.013Z,74.88
2019-03-21T01:37:51.948Z,77.50
2019-03-21T01:42:55.834Z,78.14
2019-03-21T01:47:59.905Z,76.10
2019-03-21T01:53:03.827Z,76.13
2019-03-21T01:58:08.130Z,76.92
2019-03-21T02:03:11.861Z,76.77
2019-03-21T02:08:15.898Z,77.11
2019-03-21T02:13:20.253Z,75.72
2019-03-21T02:18:24.482Z,74.43
2019-03-21T02:23:29.268Z,73.48
2019-03-21T02:28:32.992Z,73.90
2019-03-21T02:33:37.104Z,74.40
2019-03-21T02:38:41.201Z,76.10
2019-03-21T02:43:44.918Z,75.16
2019-03-21T02:48:48.762Z,75.64
2019-03-21T02:53:52.694Z,76.37
2019-03-21T02:58:57.082Z,75.07
2019-03-21T03:04:00.956Z,75.02
2019-03-21T03:09:08.112Z,73.87
2019-03-21T03:14:11.988Z,73.30
2019-03-21T03:19:15.799Z,74.21
2019-03-21T03:24:22.239Z,75.37
2019-03-21T03:29:26.363Z,74.86
2019-03-21T03:34:30.372Z,75.01
2019-03-21T03:39:36.832Z,75.11
2019-03-21T03:44:40.164Z,75.77
2019-03-21T03:49:44.271Z,75.68
2019-03-21T03:54:48.205Z,74.63
2019-03-21T03:59:52.474Z,75.01
2019-03-21T04:04:56.371Z,75.67
2019-03-21T04:10:00.561Z,75.85
2019-03-21T04:15:05.853Z,74.89
2019-03-21T04:20:12.461Z,74.44
2019-03-21T04:25:24.118Z,76.38
2019-03-21T04:30:27.939Z,76.00
2019-03-21T04:35:31.894Z,76.69
2019-03-21T04:40:35.882Z,76.49
2019-03-21T04:45:39.778Z,74.98
2019-03-21T04:50:43.813Z,74.48
2019-03-21T04:55:47.754Z,74.49
2019-03-21T05:00:51.524Z,74.25
2019-03-21T05:05:55.382Z,73.91
2019-03-21T05:10:59.327Z,73.71
2019-03-21T05:16:14.030Z,72.97
2019-03-21T05:21:10.026Z,72.32
2019-03-21T05:26:14.220Z,72.55
2019-03-21T05:31:26.243Z,71.54
2019-03-21T05:36:30.337Z,70.96
2019-03-21T05:41:34.234Z,70.94
2019-03-21T05:46:38.107Z,70.17
2019-03-21T05:51:42.201Z,69.53
2019-03-21T05:56:46.121Z,68.65
2019-03-21T06:01:50.323Z,67.72
2019-03-21T06:07:16.284Z,67.48
2019-03-21T06:12:20.245Z,66.80
2019-03-21T06:17:24.950Z,65.21
2019-03-21T06:23:13.124Z,64.75
2019-03-21T06:28:16.889Z,64.67
2019-03-21T06:33:20.860Z,66.00
2019-03-21T06:38:24.715Z,64.28
2019-03-21T06:43:28.858Z,63.44
2019-03-21T06:48:32.834Z,63.39
2019-03-21T06:53:36.703Z,63.88
2019-03-21T06:58:40.465Z,62.82
2019-03-21T07:03:44.390Z,62.36
2019-03-21T07:08:48.389Z,61.44
2019-03-21T07:13:52.355Z,60.57
2019-03-21T07:18:56.126Z,60.44
2019-03-21T07:24:00.071Z,59.52
2019-03-21T07:29:04.098Z,59.55
2019-03-21T07:34:10.101Z,59.62
2019-03-21T07:39:13.557Z,58.35
2019-03-21T07:44:17.274Z,56.74
2019-03-21T07:49:21.066Z,56.70
2019-03-21T07:54:24.973Z,58.23
2019-03-21T07:59:28.758Z,58.32
2019-03-21T08:04:32.817Z,59.44
2019-03-21T08:09:36.821Z,57.04
2019-03-21T08:14:41.381Z,56.63
2019-03-21T08:19:45.447Z,56.14
2019-03-21T08:24:49.459Z,55.81
2019-03-21T08:29:53.647Z,55.38
2019-03-21T08:34:57.522Z,54.95
2019-03-21T08:40:01.438Z,54.19
2019-03-21T08:45:06.716Z,54.06
2019-03-21T08:50:10.990Z,54.69
2019-03-21T08:55:14.875Z,53.97
2019-03-21T09:00:18.935Z,54.48
2019-03-21T09:05:22.818Z,54.26
2019-03-21T09:10:26.667Z,55.98
2019-03-21T09:15:30.572Z,56.18
2019-03-21T09:20:34.330Z,54.76
2019-03-21T09:25:38.138Z,55.04
2019-03-21T09:30:42.349Z,53.71
2019-03-21T09:35:46.274Z,53.98
2019-03-21T09:40:50.017Z,53.22
2019-03-21T09:45:53.754Z,52.53
2019-03-21T09:50:57.537Z,51.58
2019-03-21T09:56:01.498Z,51.07
2019-03-21T10:01:05.408Z,51.25
2019-03-21T10:06:09.343Z,51.00
2019-03-21T10:11:13.372Z,50.12
2019-03-21T10:16:17.283Z,49.81
2019-03-21T10:21:21.054Z,49.45
2019-03-21T10:26:25.138Z,49.56
2019-03-21T10:31:29.077Z,49.62
2019-03-21T10:36:33.045Z,49.32
2019-03-21T10:41:37.023Z,49.63
2019-03-21T10:46:41.052Z,48.95
2019-03-21T10:51:54.435Z,49.16
2019-03-21T10:56:50.642Z,48.39
2019-03-21T11:01:54.533Z,48.58
2019-03-21T11:07:03.199Z,48.08
2019-03-21T11:12:07.239Z,48.25
2019-03-21T11:17:11.123Z,47.15
2019-03-21T11:22:14.855Z,48.70
2019-03-21T11:27:18.598Z,47.63
2019-03-21T11:32:22.665Z,46.80
2019-03-21T11:37:26.570Z,46.81
2019-03-21T11:42:30.496Z,46.06
2019-03-21T11:47:41.607Z,46.05
2019-03-21T11:52:41.223Z,44.92
2019-03-21T11:57:45.216Z,45.63
2019-03-21T12:02:49.638Z,46.41
2019-03-21T12:07:53.522Z,46.50
2019-03-21T12:12:57.807Z,45.91
2019-03-21T12:18:01.678Z,46.64
2019-03-21T12:23:06.010Z,46.37
2019-03-21T12:28:10.234Z,46.92
2019-03-21T12:33:14.133Z,45.73
2019-03-21T12:38:17.997Z,45.42
2019-03-21T12:43:22.042Z,45.45
2019-03-21T12:48:25.956Z,45.91
2019-03-21T12:53:29.777Z,46.07
2019-03-21T12:58:33.805Z,46.91
2019-03-21T13:03:37.764Z,48.00
2019-03-21T13:08:41.761Z,47.62
2019-03-21T13:13:45.815Z,48.10
2019-03-21T13:18:49.728Z,48.85
2019-03-21T13:23:53.661Z,48.88
2019-03-21T13:28:57.992Z,48.79
2019-03-21T13:34:01.910Z,48.92
2019-03-21T13:39:07.886Z,49.56
2019-03-21T13:44:11.728Z,50.15
2019-03-21T13:49:15.585Z,51.50
2019-03-21T13:54:19.476Z,51.16
2019-03-21T13:59:23.395Z,52.54
2019-03-21T14:04:27.361Z,54.50
2019-03-21T14:09:31.245Z,54.93
2019-03-21T14:14:35.059Z,54.60
2019-03-21T14:19:39.024Z,54.79
2019-03-21T14:24:43.148Z,55.37
2019-03-21T14:29:47.057Z,54.88
2019-03-21T14:34:50.960Z,54.17
2019-03-21T14:39:55.117Z,54.48
2019-03-21T14:44:59.051Z,54.59
2019-03-21T14:50:04.083Z,54.52
2019-03-21T14:55:09.611Z,54.99
2019-03-21T15:00:18.275Z,54.56
2019-03-21T15:05:22.200Z,55.39
2019-03-21T15:10:26.070Z,56.11
2019-03-21T15:15:32.181Z,56.81
2019-03-21T15:20:35.964Z,57.04
2019-03-21T15:25:40.121Z,57.69
2019-03-21T15:30:44.217Z,58.35
2019-03-21T15:35:48.200Z,58.08
2019-03-21T15:40:52.452Z,58.50
2019-03-21T15:45:56.769Z,58.44
2019-03-21T15:51:04.846Z,58.31
2019-03-21T15:56:06.379Z,58.38
2019-03-21T16:01:10.344Z,58.31
2019-03-21T16:06:14.479Z,57.37
2019-03-21T16:11:18.275Z,56.97
2019-03-21T16:16:22.343Z,57.45
2019-03-21T16:21:26.399Z,56.73
2019-03-21T16:26:30.272Z,56.29
2019-03-21T16:31:34.021Z,57.20
2019-03-21T16:36:37.940Z,56.88
2019-03-21T16:41:41.819Z,57.81
2019-03-21T16:46:45.795Z,58.31
2019-03-21T16:51:49.702Z,58.34
2019-03-21T16:56:53.655Z,58.64
2019-03-21T17:01:57.586Z,59.00
2019-03-21T17:07:01.597Z,58.91
2019-03-21T17:12:05.427Z,59.83
2019-03-21T17:17:09.423Z,60.12
2019-03-21T17:22:13.621Z,60.64
2019-03-21T17:27:17.608Z,60.11
2019-03-21T17:32:21.587Z,60.07
2019-03-21T17:37:25.523Z,60.81
2019-03-21T17:42:29.520Z,61.26
2019-03-21T17:47:33.881Z,61.21
2019-03-21T17:52:37.589Z,60.98
2019-03-21T17:57:41.416Z,62.13
2019-03-21T18:02:45.301Z,62.20
2019-03-21T18:07:49.344Z,61.99
2019-03-21T18:12:53.231Z,62.32
2019-03-21T18:17:57.260Z,63.01
2019-03-21T18:23:01.617Z,63.10
2019-03-21T18:28:08.432Z,62.72
2019-03-21T18:33:11.446Z,63.25
2019-03-21T18:38:15.399Z,63.23
2019-03-21T18:43:19.393Z,63.75
2019-03-21T18:48:23.384Z,64.02
2019-03-21T18:53:27.487Z,64.26
2019-03-21T18:58:31.396Z,63.85
2019-03-21T19:03:35.345Z,63.48
2019-03-21T19:08:39.125Z,63.50
2019-03-21T19:13:43.299Z,64.57
2019-03-21T19:18:47.193Z,64.19
2019-03-21T19:23:51.186Z,65.00
2019-03-21T19:28:54.986Z,65.07
2019-03-21T19:33:59.882Z,65.96
2019-03-21T19:39:06.539Z,65.44
2019-03-21T19:44:10.817Z,65.40
2019-03-21T19:49:14.858Z,65.62
2019-03-21T19:54:18.958Z,65.45
2019-03-21T19:59:22.861Z,65.58
2019-03-21T20:04:26.853Z,65.30
2019-03-21T20:09:30.804Z,65.51
2019-03-21T20:14:34.625Z,66.23
2019-03-21T20:19:38.475Z,65.95
2019-03-21T20:24:42.362Z,65.94
2019-03-21T20:29:46.624Z,66.00
2019-03-21T20:34:50.609Z,66.05
2019-03-21T20:39:54.726Z,66.03
2019-03-21T20:44:58.680Z,66.44
2019-03-21T20:50:02.994Z,66.44
2019-03-21T20:55:08.632Z,66.46
2019-03-21T21:00:16.492Z,66.92
2019-03-21T21:05:22.939Z,67.05
2019-03-21T21:10:26.903Z,67.19
2019-03-21T21:15:30.956Z,68.18
2019-03-21T21:20:34.944Z,68.38
2019-03-21T21:25:38.798Z,68.94
2019-03-21T21:30:42.858Z,69.15
2019-03-21T21:35:46.853Z,69.48
2019-03-21T21:40:50.817Z,69.00
2019-03-21T21:45:54.939Z,68.80
2019-03-21T21:50:59.111Z,68.01
2019-03-21T21:56:03.917Z,66.76
2019-03-21T22:01:07.852Z,67.27
2019-03-21T22:06:11.958Z,67.84
2019-03-21T22:11:15.938Z,68.43
2019-03-21T22:16:19.832Z,68.73
2019-03-21T22:21:23.735Z,68.54
2019-03-21T22:26:29.848Z,68.61
2019-03-21T22:31:33.660Z,69.55
2019-03-21T22:36:48.630Z,69.57
2019-03-21T22:41:43.278Z,70.15
2019-03-21T22:46:47.539Z,71.13
2019-03-21T22:51:51.292Z,71.68
2019-03-21T22:56:55.011Z,70.87
2019-03-21T23:02:02.381Z,72.41
2019-03-21T23:07:06.377Z,72.67
2019-03-21T23:12:10.487Z,71.64
2019-03-21T23:17:14.235Z,71.30
2019-03-21T23:22:18.008Z,72.23
2019-03-21T23:27:21.966Z,72.48
2019-03-21T23:32:26.228Z,72.69
2019-03-21T23:37:30.036Z,72.97
2019-03-21T23:42:33.783Z,71.68
2019-03-21T23:47:37.790Z,71.69
2019-03-21T23:52:41.902Z,71.87
2019-03-21T23:57:46.107Z,71.50
